Monte Rio, CA

10:22 PM PDT on September 02, 2014 (GMT -0700)
Napa County | Change Station
CLOSE
Current Station
Airport
Location: Napa County,
Elevation: 33 ft
Nearby Weather Stations

Elev 33 ft 38.21 °N, 122.28 °W | Updated 28 minutes ago

Scattered Clouds
Scattered Clouds
58 °F
Feels Like 58 °F
N
7
Wind Variable Wind from West

Today
High -- | Low -- °F
--% Chance of Precip.
Yesterday
High -- | Low -- °F
Precip. -- in
6:42 AM 7:40 PM
First Quarter, 58% visible
Pressure 29.76 in
Visibility 10.0 miles
Clouds Scattered Clouds 1400 ft
Dew Point 56 °F
Humidity 93%
Rainfall 0.00 in
Snow Depth Not available.
UV 0 out of 12
Pollen 7.30 out of 12
Air Quality Not available.
Flu Activity Not available.
METAR KAPC 030454Z 27006KT 10SM SCT014 14/13 A2978 RMK AO2 SLP076 T01440133

More Conditions Fewer Conditions

Pressure 29.76 in
Visibility 10.0 miles
Clouds Scattered Clouds 1400 ft
Dew Point 56 °F
Humidity 93%
Rainfall 0.00 in
Snow Depth Not available.
UV 0 out of 12
Pollen 7.30 out of 12
Air Quality Not available.
Flu Activity Not available.
METAR KAPC 030454Z 27006KT 10SM SCT014 14/13 A2978 RMK AO2 SLP076 T01440133

More Conditions Fewer Conditions

10-Day Weather Forecast

Almanac

Astronomy

Sep. 02, 2014 Rise Set
Actual Time 6:42 AM PDT 7:40 PM PDT
Civil Twilight 6:15 AM PDT 8:07 PM PDT
Nautical Twilight 5:43 AM PDT 8:39 PM PDT
Astronomical Twilight 5:09 AM PDT 9:12 PM PDT
Moon 2:26 PM PDT (9/2) No Moon Set
Length of Visible Light 13h 52m
Length of Day
12h 57m
Tomorrow will be 2m 23s shorter.
First Quarter, 58% of the Moon is Illuminated
Sep 3
First Quarter
Sep 8
Full
Sep 15
Last Quarter
Sep 24
New
Oct 1
First Quarter

Yesterday's Extremes

State Highs State Lows

Community

WunderPhotos

Upload Photos

1,749,877 photos uploaded!

Nearby

Air Quality

  Air Quality AQ Index Pollutant
Tuesday Good
PM2.5
Wednesday Good
PM2.5
Thursday Good
PM2.5
Friday Good
PM2.5
Saturday Good
PM2.5
Sunday Good
PM2.5

Snow Depth

Station Depth Elevation
CSS Lab 2 in 6900 ft
Rubicon #2 0 in 7500 ft
Echo Peak 0 in 7800 ft
Forestdale Creek 0 in 8029 ft
Blue Lakes 0 in 8000 ft

Earthquake Activity

City Distance Mag. Time & Date
Cobb, California 27 miles 2.5 12:00 PM PDT
2014-09-02
Yountville, California 34 miles 2.6 1:15 PM PDT
2014-09-01
Gilroy, California 133 miles 3.4 9:10 AM PDT
2014-09-01
Green Valley, California 48 miles 2.5 6:37 AM PDT
2014-08-31
Minimum magnitude displayed is 2.5.

Coastal Water Temperatures

Place Temperature
Point Reyes, CA 57.9 °F
Arena Cove, CA 53.1 °F
San Francisco, CA 64.0 °F
Richmond, CA 68.0 °F

Nearby Weather Stations